sensor_id;sensor_type;location;lat;lon;timestamp;pressure;altitude;pressure_sealevel;temperature
41593;BMP180;28026;48.562;14.440;2022-12-13T00:01:15;93003.00;;;-1.20
41593;BMP180;28026;48.562;14.440;2022-12-13T00:03:46;93003.00;;;-1.20
41593;BMP180;28026;48.562;14.440;2022-12-13T00:06:18;92999.00;;;-1.20
41593;BMP180;28026;48.562;14.440;2022-12-13T00:08:49;93012.00;;;-1.30
41593;BMP180;28026;48.562;14.440;2022-12-13T00:11:21;93005.00;;;-1.30
41593;BMP180;28026;48.562;14.440;2022-12-13T00:13:53;93013.00;;;-1.40
41593;BMP180;28026;48.562;14.440;2022-12-13T00:16:25;93006.00;;;-1.50
41593;BMP180;28026;48.562;14.440;2022-12-13T00:18:59;93005.00;;;-1.40
41593;BMP180;28026;48.562;14.440;2022-12-13T00:21:32;93001.00;;;-1.40
41593;BMP180;28026;48.562;14.440;2022-12-13T00:24:05;93004.00;;;-1.50
41593;BMP180;28026;48.562;14.440;2022-12-13T00:26:38;93004.00;;;-1.40
41593;BMP180;28026;48.562;14.440;2022-12-13T00:29:11;93006.00;;;-1.40
41593;BMP180;28026;48.562;14.440;2022-12-13T00:31:42;93013.00;;;-1.40
41593;BMP180;28026;48.562;14.440;2022-12-13T00:34:13;93006.00;;;-1.40
41593;BMP180;28026;48.562;14.440;2022-12-13T00:36:44;93004.00;;;-1.40
41593;BMP180;28026;48.562;14.440;2022-12-13T00:39:16;92991.00;;;-1.50
41593;BMP180;28026;48.562;14.440;2022-12-13T00:41:48;92981.00;;;-1.50
41593;BMP180;28026;48.562;14.440;2022-12-13T00:44:19;92984.00;;;-1.50
41593;BMP180;28026;48.562;14.440;2022-12-13T00:46:50;92994.00;;;-1.50
41593;BMP180;28026;48.562;14.440;2022-12-13T00:49:22;92992.00;;;-1.50
41593;BMP180;28026;48.562;14.440;2022-12-13T00:51:53;92996.00;;;-1.50
41593;BMP180;28026;48.562;14.440;2022-12-13T00:54:24;92991.00;;;-1.50
41593;BMP180;28026;48.562;14.440;2022-12-13T00:56:55;92985.00;;;-1.60
41593;BMP180;28026;48.562;14.440;2022-12-13T00:59:26;92980.00;;;-1.60
41593;BMP180;28026;48.562;14.440;2022-12-13T01:01:57;92994.00;;;-1.60
41593;BMP180;28026;48.562;14.440;2022-12-13T01:04:28;92984.00;;;-1.70
41593;BMP180;28026;48.562;14.440;2022-12-13T01:06:58;92993.00;;;-1.70
41593;BMP180;28026;48.562;14.440;2022-12-13T01:09:30;92981.00;;;-1.70
41593;BMP180;28026;48.562;14.440;2022-12-13T01:12:04;92992.00;;;-1.70
41593;BMP180;28026;48.562;14.440;2022-12-13T01:14:39;92987.00;;;-1.70
41593;BMP180;28026;48.562;14.440;2022-12-13T01:17:11;92968.00;;;-1.70
41593;BMP180;28026;48.562;14.440;2022-12-13T01:19:41;92979.00;;;-1.70
41593;BMP180;28026;48.562;14.440;2022-12-13T01:22:12;92983.00;;;-1.70
41593;BMP180;28026;48.562;14.440;2022-12-13T01:24:44;92982.00;;;-1.80
41593;BMP180;28026;48.562;14.440;2022-12-13T01:27:14;92972.00;;;-1.90
41593;BMP180;28026;48.562;14.440;2022-12-13T01:29:45;92968.00;;;-2.00
41593;BMP180;28026;48.562;14.440;2022-12-13T01:32:16;92960.00;;;-1.90
41593;BMP180;28026;48.562;14.440;2022-12-13T01:34:47;92962.00;;;-2.00
41593;BMP180;28026;48.562;14.440;2022-12-13T01:37:18;92954.00;;;-2.00
41593;BMP180;28026;48.562;14.440;2022-12-13T01:39:50;92954.00;;;-2.00
41593;BMP180;28026;48.562;14.440;2022-12-13T01:42:20;92949.00;;;-2.00
41593;BMP180;28026;48.562;14.440;2022-12-13T01:47:43;92958.00;;;-2.10
41593;BMP180;28026;48.562;14.440;2022-12-13T01:50:22;92962.00;;;-2.20
41593;BMP180;28026;48.562;14.440;2022-12-13T01:52:58;92952.00;;;-2.20
41593;BMP180;28026;48.562;14.440;2022-12-13T01:55:35;92955.00;;;-2.10
41593;BMP180;28026;48.562;14.440;2022-12-13T01:58:09;92954.00;;;-2.10
41593;BMP180;28026;48.562;14.440;2022-12-13T02:00:44;92947.00;;;-2.00
41593;BMP180;28026;48.562;14.440;2022-12-13T02:03:20;92943.00;;;-2.10
41593;BMP180;28026;48.562;14.440;2022-12-13T02:06:02;92931.00;;;-2.10
41593;BMP180;28026;48.562;14.440;2022-12-13T02:08:40;92940.00;;;-2.10
41593;BMP180;28026;48.562;14.440;2022-12-13T02:11:14;92930.00;;;-2.10
41593;BMP180;28026;48.562;14.440;2022-12-13T02:13:45;92940.00;;;-2.10
41593;BMP180;28026;48.562;14.440;2022-12-13T02:17:04;92950.00;;;-2.10
41593;BMP180;28026;48.562;14.440;2022-12-13T02:19:59;92952.00;;;-2.20
41593;BMP180;28026;48.562;14.440;2022-12-13T02:32:41;92950.00;;;-2.20
41593;BMP180;28026;48.562;14.440;2022-12-13T02:41:35;92931.00;;;-2.40
41593;BMP180;28026;48.562;14.440;2022-12-13T02:49:59;92930.00;;;-2.50
41593;BMP180;28026;48.562;14.440;2022-12-13T02:52:36;92927.00;;;-2.40
41593;BMP180;28026;48.562;14.440;2022-12-13T02:55:13;92919.00;;;-2.40
41593;BMP180;28026;48.562;14.440;2022-12-13T02:57:46;92919.00;;;-2.40
41593;BMP180;28026;48.562;14.440;2022-12-13T03:04:23;92919.00;;;-2.40
41593;BMP180;28026;48.562;14.440;2022-12-13T03:07:14;92907.00;;;-2.40
41593;BMP180;28026;48.562;14.440;2022-12-13T03:10:20;92917.00;;;-2.50
41593;BMP180;28026;48.562;14.440;2022-12-13T03:13:07;92908.00;;;-2.50
41593;BMP180;28026;48.562;14.440;2022-12-13T03:16:16;92927.00;;;-2.60
41593;BMP180;28026;48.562;14.440;2022-12-13T03:18:53;92921.00;;;-2.70
41593;BMP180;28026;48.562;14.440;2022-12-13T03:21:28;92925.00;;;-2.80
41593;BMP180;28026;48.562;14.440;2022-12-13T03:23:59;92911.00;;;-2.90
41593;BMP180;28026;48.562;14.440;2022-12-13T03:26:31;92908.00;;;-2.90
41593;BMP180;28026;48.562;14.440;2022-12-13T03:29:03;92904.00;;;-2.90
41593;BMP180;28026;48.562;14.440;2022-12-13T03:31:34;92921.00;;;-2.90
41593;BMP180;28026;48.562;14.440;2022-12-13T03:34:05;92924.00;;;-2.80
41593;BMP180;28026;48.562;14.440;2022-12-13T03:36:36;92916.00;;;-2.80
41593;BMP180;28026;48.562;14.440;2022-12-13T03:39:07;92906.00;;;-2.80
41593;BMP180;28026;48.562;14.440;2022-12-13T03:41:38;92913.00;;;-2.80
41593;BMP180;28026;48.562;14.440;2022-12-13T03:44:09;92908.00;;;-2.80
41593;BMP180;28026;48.562;14.440;2022-12-13T03:46:40;92916.00;;;-2.80
41593;BMP180;28026;48.562;14.440;2022-12-13T03:49:11;92910.00;;;-2.80
41593;BMP180;28026;48.562;14.440;2022-12-13T03:51:42;92915.00;;;-2.80
41593;BMP180;28026;48.562;14.440;2022-12-13T03:54:13;92904.00;;;-2.80
41593;BMP180;28026;48.562;14.440;2022-12-13T03:56:44;92891.00;;;-2.80
41593;BMP180;28026;48.562;14.440;2022-12-13T03:59:15;92896.00;;;-2.80
41593;BMP180;28026;48.562;14.440;2022-12-13T04:01:46;92911.00;;;-2.70
41593;BMP180;28026;48.562;14.440;2022-12-13T04:04:17;92883.00;;;-2.80
41593;BMP180;28026;48.562;14.440;2022-12-13T04:06:48;92877.00;;;-2.70
41593;BMP180;28026;48.562;14.440;2022-12-13T04:09:19;92884.00;;;-2.70
41593;BMP180;28026;48.562;14.440;2022-12-13T04:11:50;92869.00;;;-2.80
41593;BMP180;28026;48.562;14.440;2022-12-13T04:14:39;92882.00;;;-2.80
41593;BMP180;28026;48.562;14.440;2022-12-13T04:17:10;92888.00;;;-2.80
41593;BMP180;28026;48.562;14.440;2022-12-13T04:19:41;92884.00;;;-2.80
41593;BMP180;28026;48.562;14.440;2022-12-13T04:22:12;92867.00;;;-2.80
41593;BMP180;28026;48.562;14.440;2022-12-13T04:24:43;92880.00;;;-2.80
41593;BMP180;28026;48.562;14.440;2022-12-13T04:27:14;92871.00;;;-2.80
41593;BMP180;28026;48.562;14.440;2022-12-13T04:29:45;92877.00;;;-2.80
41593;BMP180;28026;48.562;14.440;2022-12-13T04:32:16;92885.00;;;-2.80
41593;BMP180;28026;48.562;14.440;2022-12-13T04:34:46;92872.00;;;-2.90
41593;BMP180;28026;48.562;14.440;2022-12-13T04:37:17;92877.00;;;-3.00
41593;BMP180;28026;48.562;14.440;2022-12-13T04:39:48;92875.00;;;-3.00
41593;BMP180;28026;48.562;14.440;2022-12-13T04:42:19;92868.00;;;-3.10
41593;BMP180;28026;48.562;14.440;2022-12-13T04:44:50;92869.00;;;-3.10
41593;BMP180;28026;48.562;14.440;2022-12-13T04:47:21;92878.00;;;-3.10
41593;BMP180;28026;48.562;14.440;2022-12-13T04:49:52;92874.00;;;-3.10
41593;BMP180;28026;48.562;14.440;2022-12-13T04:52:23;92863.00;;;-3.10
41593;BMP180;28026;48.562;14.440;2022-12-13T04:54:54;92879.00;;;-3.10
41593;BMP180;28026;48.562;14.440;2022-12-13T04:57:25;92871.00;;;-3.20
41593;BMP180;28026;48.562;14.440;2022-12-13T04:59:56;92867.00;;;-3.20
41593;BMP180;28026;48.562;14.440;2022-12-13T05:02:27;92861.00;;;-3.20
41593;BMP180;28026;48.562;14.440;2022-12-13T05:04:58;92865.00;;;-3.20
41593;BMP180;28026;48.562;14.440;2022-12-13T05:07:29;92869.00;;;-3.10
41593;BMP180;28026;48.562;14.440;2022-12-13T05:10:00;92868.00;;;-3.10
41593;BMP180;28026;48.562;14.440;2022-12-13T05:12:30;92853.00;;;-3.10
41593;BMP180;28026;48.562;14.440;2022-12-13T05:15:01;92853.00;;;-3.10
41593;BMP180;28026;48.562;14.440;2022-12-13T05:17:33;92855.00;;;-3.10
41593;BMP180;28026;48.562;14.440;2022-12-13T05:20:04;92863.00;;;-3.10
41593;BMP180;28026;48.562;14.440;2022-12-13T05:22:35;92861.00;;;-3.20
41593;BMP180;28026;48.562;14.440;2022-12-13T05:25:07;92862.00;;;-3.20
41593;BMP180;28026;48.562;14.440;2022-12-13T05:27:38;92852.00;;;-3.20
41593;BMP180;28026;48.562;14.440;2022-12-13T05:30:10;92853.00;;;-3.20
41593;BMP180;28026;48.562;14.440;2022-12-13T05:32:41;92848.00;;;-3.20
41593;BMP180;28026;48.562;14.440;2022-12-13T05:35:14;92860.00;;;-3.30
41593;BMP180;28026;48.562;14.440;2022-12-13T05:37:45;92848.00;;;-3.30
41593;BMP180;28026;48.562;14.440;2022-12-13T05:40:16;92855.00;;;-3.40
41593;BMP180;28026;48.562;14.440;2022-12-13T05:42:47;92847.00;;;-3.40
41593;BMP180;28026;48.562;14.440;2022-12-13T05:45:19;92839.00;;;-3.50
41593;BMP180;28026;48.562;14.440;2022-12-13T05:47:51;92850.00;;;-3.50
41593;BMP180;28026;48.562;14.440;2022-12-13T05:50:22;92836.00;;;-3.50
41593;BMP180;28026;48.562;14.440;2022-12-13T05:52:53;92849.00;;;-3.50
41593;BMP180;28026;48.562;14.440;2022-12-13T05:55:24;92851.00;;;-3.50
41593;BMP180;28026;48.562;14.440;2022-12-13T05:57:55;92826.00;;;-3.50
41593;BMP180;28026;48.562;14.440;2022-12-13T06:00:26;92848.00;;;-3.50
41593;BMP180;28026;48.562;14.440;2022-12-13T06:02:58;92849.00;;;-3.50
41593;BMP180;28026;48.562;14.440;2022-12-13T06:05:31;92834.00;;;-3.40
41593;BMP180;28026;48.562;14.440;2022-12-13T06:08:02;92837.00;;;-3.40
41593;BMP180;28026;48.562;14.440;2022-12-13T06:10:32;92838.00;;;-3.40
41593;BMP180;28026;48.562;14.440;2022-12-13T06:13:04;92848.00;;;-3.50
41593;BMP180;28026;48.562;14.440;2022-12-13T06:15:37;92844.00;;;-3.50
41593;BMP180;28026;48.562;14.440;2022-12-13T06:18:08;92837.00;;;-3.60
41593;BMP180;28026;48.562;14.440;2022-12-13T06:20:38;92848.00;;;-3.60
41593;BMP180;28026;48.562;14.440;2022-12-13T06:23:09;92843.00;;;-3.70
41593;BMP180;28026;48.562;14.440;2022-12-13T06:25:40;92841.00;;;-3.70
41593;BMP180;28026;48.562;14.440;2022-12-13T06:28:12;92833.00;;;-3.70
41593;BMP180;28026;48.562;14.440;2022-12-13T06:30:43;92850.00;;;-3.80
41593;BMP180;28026;48.562;14.440;2022-12-13T06:33:14;92846.00;;;-3.80
41593;BMP180;28026;48.562;14.440;2022-12-13T06:35:46;92852.00;;;-3.80
41593;BMP180;28026;48.562;14.440;2022-12-13T06:38:16;92852.00;;;-3.80
41593;BMP180;28026;48.562;14.440;2022-12-13T06:40:47;92857.00;;;-3.70
41593;BMP180;28026;48.562;14.440;2022-12-13T06:43:19;92853.00;;;-3.70
41593;BMP180;28026;48.562;14.440;2022-12-13T06:45:50;92856.00;;;-3.70
41593;BMP180;28026;48.562;14.440;2022-12-13T06:48:21;92860.00;;;-3.70
41593;BMP180;28026;48.562;14.440;2022-12-13T06:50:52;92864.00;;;-3.70
41593;BMP180;28026;48.562;14.440;2022-12-13T06:53:23;92868.00;;;-3.70
41593;BMP180;28026;48.562;14.440;2022-12-13T06:55:54;92859.00;;;-3.70
41593;BMP180;28026;48.562;14.440;2022-12-13T06:58:26;92860.00;;;-3.70
41593;BMP180;28026;48.562;14.440;2022-12-13T07:01:06;92852.00;;;-3.70
41593;BMP180;28026;48.562;14.440;2022-12-13T07:03:40;92845.00;;;-3.60
41593;BMP180;28026;48.562;14.440;2022-12-13T07:06:18;92849.00;;;-3.60
41593;BMP180;28026;48.562;14.440;2022-12-13T07:08:56;92856.00;;;-3.50
41593;BMP180;28026;48.562;14.440;2022-12-13T07:11:30;92844.00;;;-3.50
41593;BMP180;28026;48.562;14.440;2022-12-13T07:14:02;92858.00;;;-3.30
41593;BMP180;28026;48.562;14.440;2022-12-13T07:16:33;92858.00;;;-3.30
41593;BMP180;28026;48.562;14.440;2022-12-13T07:19:05;92852.00;;;-3.10
41593;BMP180;28026;48.562;14.440;2022-12-13T07:21:36;92866.00;;;-3.10
41593;BMP180;28026;48.562;14.440;2022-12-13T07:24:09;92867.00;;;-3.00
41593;BMP180;28026;48.562;14.440;2022-12-13T07:26:40;92871.00;;;-2.80
41593;BMP180;28026;48.562;14.440;2022-12-13T07:29:10;92860.00;;;-2.70
41593;BMP180;28026;48.562;14.440;2022-12-13T07:31:41;92873.00;;;-2.50
41593;BMP180;28026;48.562;14.440;2022-12-13T07:34:12;92867.00;;;-2.40
41593;BMP180;28026;48.562;14.440;2022-12-13T07:36:43;92867.00;;;-2.40
41593;BMP180;28026;48.562;14.440;2022-12-13T07:39:14;92868.00;;;-2.30
41593;BMP180;28026;48.562;14.440;2022-12-13T07:41:45;92875.00;;;-2.10
41593;BMP180;28026;48.562;14.440;2022-12-13T07:44:16;92856.00;;;-2.00
41593;BMP180;28026;48.562;14.440;2022-12-13T07:46:47;92866.00;;;-1.90
41593;BMP180;28026;48.562;14.440;2022-12-13T07:49:18;92839.00;;;-1.60
41593;BMP180;28026;48.562;14.440;2022-12-13T07:51:49;92868.00;;;-1.50
41593;BMP180;28026;48.562;14.440;2022-12-13T07:54:19;92856.00;;;-1.30
41593;BMP180;28026;48.562;14.440;2022-12-13T07:56:50;92867.00;;;-1.00
41593;BMP180;28026;48.562;14.440;2022-12-13T07:59:21;92872.00;;;-0.80
41593;BMP180;28026;48.562;14.440;2022-12-13T08:01:52;92872.00;;;-0.60
41593;BMP180;28026;48.562;14.440;2022-12-13T08:04:23;92869.00;;;-0.40
41593;BMP180;28026;48.562;14.440;2022-12-13T08:06:54;92875.00;;;-0.30
41593;BMP180;28026;48.562;14.440;2022-12-13T08:09:27;92877.00;;;-0.10
41593;BMP180;28026;48.562;14.440;2022-12-13T08:11:58;92862.00;;;0.10
41593;BMP180;28026;48.562;14.440;2022-12-13T08:14:30;92880.00;;;0.30
41593;BMP180;28026;48.562;14.440;2022-12-13T08:17:01;92860.00;;;0.50
41593;BMP180;28026;48.562;14.440;2022-12-13T08:19:32;92873.00;;;0.70
41593;BMP180;28026;48.562;14.440;2022-12-13T08:22:03;92878.00;;;0.90
41593;BMP180;28026;48.562;14.440;2022-12-13T08:24:34;92863.00;;;1.00
41593;BMP180;28026;48.562;14.440;2022-12-13T08:27:05;92867.00;;;1.10
41593;BMP180;28026;48.562;14.440;2022-12-13T08:29:36;92874.00;;;1.30
41593;BMP180;28026;48.562;14.440;2022-12-13T08:32:11;92873.00;;;1.50
41593;BMP180;28026;48.562;14.440;2022-12-13T08:34:42;92874.00;;;1.80
41593;BMP180;28026;48.562;14.440;2022-12-13T08:37:13;92869.00;;;2.00
41593;BMP180;28026;48.562;14.440;2022-12-13T08:39:44;92877.00;;;2.30
41593;BMP180;28026;48.562;14.440;2022-12-13T08:42:17;92880.00;;;2.50
41593;BMP180;28026;48.562;14.440;2022-12-13T08:44:50;92883.00;;;2.60
41593;BMP180;28026;48.562;14.440;2022-12-13T08:47:24;92887.00;;;2.70
41593;BMP180;28026;48.562;14.440;2022-12-13T08:49:57;92876.00;;;2.90
41593;BMP180;28026;48.562;14.440;2022-12-13T08:52:30;92875.00;;;3.20
41593;BMP180;28026;48.562;14.440;2022-12-13T08:55:02;92878.00;;;3.40
41593;BMP180;28026;48.562;14.440;2022-12-13T08:57:36;92882.00;;;3.50
41593;BMP180;28026;48.562;14.440;2022-12-13T09:00:17;92889.00;;;3.60
41593;BMP180;28026;48.562;14.440;2022-12-13T09:02:49;92884.00;;;3.80
41593;BMP180;28026;48.562;14.440;2022-12-13T09:05:20;92882.00;;;4.00
41593;BMP180;28026;48.562;14.440;2022-12-13T09:07:55;92882.00;;;4.30
41593;BMP180;28026;48.562;14.440;2022-12-13T09:10:27;92886.00;;;4.50
41593;BMP180;28026;48.562;14.440;2022-12-13T09:12:59;92886.00;;;4.80
41593;BMP180;28026;48.562;14.440;2022-12-13T09:15:31;92890.00;;;5.00
41593;BMP180;28026;48.562;14.440;2022-12-13T09:18:03;92888.00;;;5.30
41593;BMP180;28026;48.562;14.440;2022-12-13T09:20:34;92887.00;;;5.40
41593;BMP180;28026;48.562;14.440;2022-12-13T09:23:08;92876.00;;;5.50
41593;BMP180;28026;48.562;14.440;2022-12-13T09:25:39;92883.00;;;5.60
41593;BMP180;28026;48.562;14.440;2022-12-13T09:28:10;92877.00;;;5.80
41593;BMP180;28026;48.562;14.440;2022-12-13T09:30:41;92871.00;;;5.90
41593;BMP180;28026;48.562;14.440;2022-12-13T09:33:12;92889.00;;;6.00
41593;BMP180;28026;48.562;14.440;2022-12-13T09:35:43;92871.00;;;6.20
41593;BMP180;28026;48.562;14.440;2022-12-13T09:38:15;92875.00;;;6.30
41593;BMP180;28026;48.562;14.440;2022-12-13T09:40:49;92874.00;;;6.40
41593;BMP180;28026;48.562;14.440;2022-12-13T09:43:29;92885.00;;;6.60
41593;BMP180;28026;48.562;14.440;2022-12-13T09:46:07;92881.00;;;6.60
41593;BMP180;28026;48.562;14.440;2022-12-13T09:48:52;92859.00;;;6.70
41593;BMP180;28026;48.562;14.440;2022-12-13T09:51:25;92864.00;;;6.80
41593;BMP180;28026;48.562;14.440;2022-12-13T09:53:57;92868.00;;;7.00
41593;BMP180;28026;48.562;14.440;2022-12-13T09:56:28;92867.00;;;7.10
41593;BMP180;28026;48.562;14.440;2022-12-13T09:58:59;92857.00;;;7.20
41593;BMP180;28026;48.562;14.440;2022-12-13T10:01:30;92868.00;;;7.30
41593;BMP180;28026;48.562;14.440;2022-12-13T10:04:01;92876.00;;;7.40
41593;BMP180;28026;48.562;14.440;2022-12-13T10:06:32;92858.00;;;7.50
41593;BMP180;28026;48.562;14.440;2022-12-13T10:09:08;92863.00;;;7.60
41593;BMP180;28026;48.562;14.440;2022-12-13T10:11:53;92875.00;;;7.80
41593;BMP180;28026;48.562;14.440;2022-12-13T10:14:29;92861.00;;;7.90
41593;BMP180;28026;48.562;14.440;2022-12-13T10:17:08;92856.00;;;8.00
41593;BMP180;28026;48.562;14.440;2022-12-13T10:19:48;92861.00;;;8.20
41593;BMP180;28026;48.562;14.440;2022-12-13T10:22:22;92861.00;;;8.30
41593;BMP180;28026;48.562;14.440;2022-12-13T10:25:03;92849.00;;;8.50
41593;BMP180;28026;48.562;14.440;2022-12-13T10:27:46;92849.00;;;8.60
41593;BMP180;28026;48.562;14.440;2022-12-13T10:30:19;92848.00;;;8.80
41593;BMP180;28026;48.562;14.440;2022-12-13T10:33:00;92836.00;;;8.80
41593;BMP180;28026;48.562;14.440;2022-12-13T10:35:37;92842.00;;;8.70
41593;BMP180;28026;48.562;14.440;2022-12-13T10:40:44;92835.00;;;8.80
41593;BMP180;28026;48.562;14.440;2022-12-13T10:43:20;92846.00;;;8.90
41593;BMP180;28026;48.562;14.440;2022-12-13T10:48:48;92829.00;;;9.00
41593;BMP180;28026;48.562;14.440;2022-12-13T10:51:21;92830.00;;;9.00
41593;BMP180;28026;48.562;14.440;2022-12-13T10:53:58;92830.00;;;9.00
41593;BMP180;28026;48.562;14.440;2022-12-13T10:56:49;92826.00;;;9.10
41593;BMP180;28026;48.562;14.440;2022-12-13T10:59:36;92835.00;;;9.20
41593;BMP180;28026;48.562;14.440;2022-12-13T11:02:35;92832.00;;;9.30
41593;BMP180;28026;48.562;14.440;2022-12-13T11:05:31;92825.00;;;9.30
41593;BMP180;28026;48.562;14.440;2022-12-13T11:08:23;92822.00;;;9.50
41593;BMP180;28026;48.562;14.440;2022-12-13T11:11:03;92817.00;;;9.70
41593;BMP180;28026;48.562;14.440;2022-12-13T11:13:51;92812.00;;;9.90
41593;BMP180;28026;48.562;14.440;2022-12-13T11:16:31;92806.00;;;10.00
41593;BMP180;28026;48.562;14.440;2022-12-13T11:19:21;92806.00;;;10.00
41593;BMP180;28026;48.562;14.440;2022-12-13T11:21:56;92803.00;;;10.00
41593;BMP180;28026;48.562;14.440;2022-12-13T11:24:36;92813.00;;;10.00
41593;BMP180;28026;48.562;14.440;2022-12-13T11:33:19;92809.00;;;10.30
41593;BMP180;28026;48.562;14.440;2022-12-13T11:42:04;92812.00;;;10.40
41593;BMP180;28026;48.562;14.440;2022-12-13T11:50:45;92801.00;;;10.40
41593;BMP180;28026;48.562;14.440;2022-12-13T11:58:47;92796.00;;;10.40
41593;BMP180;28026;48.562;14.440;2022-12-13T12:01:50;92802.00;;;10.30
41593;BMP180;28026;48.562;14.440;2022-12-13T12:04:55;92809.00;;;10.30
41593;BMP180;28026;48.562;14.440;2022-12-13T12:07:51;92818.00;;;10.30
41593;BMP180;28026;48.562;14.440;2022-12-13T12:10:42;92820.00;;;10.20
41593;BMP180;28026;48.562;14.440;2022-12-13T12:16:31;92811.00;;;10.20
41593;BMP180;28026;48.562;14.440;2022-12-13T12:19:15;92806.00;;;10.20
41593;BMP180;28026;48.562;14.440;2022-12-13T12:25:22;92800.00;;;10.40
41593;BMP180;28026;48.562;14.440;2022-12-13T12:31:09;92798.00;;;10.50
41593;BMP180;28026;48.562;14.440;2022-12-13T12:34:07;92794.00;;;10.40
41593;BMP180;28026;48.562;14.440;2022-12-13T12:40:18;92782.00;;;10.40
41593;BMP180;28026;48.562;14.440;2022-12-13T12:46:02;92777.00;;;10.50
41593;BMP180;28026;48.562;14.440;2022-12-13T12:56:38;92781.00;;;10.30
41593;BMP180;28026;48.562;14.440;2022-12-13T12:59:41;92777.00;;;10.30
41593;BMP180;28026;48.562;14.440;2022-12-13T13:05:32;92784.00;;;10.20
41593;BMP180;28026;48.562;14.440;2022-12-13T13:08:22;92770.00;;;10.10
41593;BMP180;28026;48.562;14.440;2022-12-13T13:10:58;92777.00;;;10.00
41593;BMP180;28026;48.562;14.440;2022-12-13T13:13:59;92784.00;;;9.90
41593;BMP180;28026;48.562;14.440;2022-12-13T13:16:41;92781.00;;;9.90
41593;BMP180;28026;48.562;14.440;2022-12-13T13:21:56;92787.00;;;9.80
41593;BMP180;28026;48.562;14.440;2022-12-13T13:24:31;92779.00;;;9.70
41593;BMP180;28026;48.562;14.440;2022-12-13T13:29:40;92796.00;;;9.60
41593;BMP180;28026;48.562;14.440;2022-12-13T13:34:46;92795.00;;;9.40
41593;BMP180;28026;48.562;14.440;2022-12-13T13:37:27;92795.00;;;9.30
41593;BMP180;28026;48.562;14.440;2022-12-13T13:49:03;92794.00;;;8.80
41593;BMP180;28026;48.562;14.440;2022-12-13T13:52:01;92812.00;;;8.70
41593;BMP180;28026;48.562;14.440;2022-12-13T13:58:06;92812.00;;;8.40
41593;BMP180;28026;48.562;14.440;2022-12-13T14:21:05;92818.00;;;7.10
41593;BMP180;28026;48.562;14.440;2022-12-13T14:29:50;92828.00;;;6.90
41593;BMP180;28026;48.562;14.440;2022-12-13T14:32:33;92821.00;;;6.80
41593;BMP180;28026;48.562;14.440;2022-12-13T14:35:31;92814.00;;;6.60
41593;BMP180;28026;48.562;14.440;2022-12-13T14:38:19;92809.00;;;6.50
41593;BMP180;28026;48.562;14.440;2022-12-13T14:41:00;92801.00;;;6.40
41593;BMP180;28026;48.562;14.440;2022-12-13T14:43:34;92809.00;;;6.20
41593;BMP180;28026;48.562;14.440;2022-12-13T14:46:06;92801.00;;;6.00
41593;BMP180;28026;48.562;14.440;2022-12-13T14:48:48;92816.00;;;5.90
41593;BMP180;28026;48.562;14.440;2022-12-13T14:51:33;92811.00;;;5.60
41593;BMP180;28026;48.562;14.440;2022-12-13T14:54:18;92818.00;;;5.50
41593;BMP180;28026;48.562;14.440;2022-12-13T14:56:56;92826.00;;;5.40
41593;BMP180;28026;48.562;14.440;2022-12-13T14:59:30;92814.00;;;5.10
41593;BMP180;28026;48.562;14.440;2022-12-13T15:02:04;92813.00;;;4.90
41593;BMP180;28026;48.562;14.440;2022-12-13T15:15:34;92830.00;;;4.80
41593;BMP180;28026;48.562;14.440;2022-12-13T15:18:19;92815.00;;;4.60
41593;BMP180;28026;48.562;14.440;2022-12-13T15:20:56;92818.00;;;4.40
41593;BMP180;28026;48.562;14.440;2022-12-13T15:23:35;92827.00;;;4.30
41593;BMP180;28026;48.562;14.440;2022-12-13T15:26:16;92829.00;;;4.10
41593;BMP180;28026;48.562;14.440;2022-12-13T15:28:57;92821.00;;;3.80
41593;BMP180;28026;48.562;14.440;2022-12-13T15:31:34;92823.00;;;3.60
41593;BMP180;28026;48.562;14.440;2022-12-13T15:34:33;92820.00;;;3.50
41593;BMP180;28026;48.562;14.440;2022-12-13T15:39:45;92821.00;;;3.20
41593;BMP180;28026;48.562;14.440;2022-12-13T15:42:34;92821.00;;;3.10
41593;BMP180;28026;48.562;14.440;2022-12-13T15:45:21;92827.00;;;3.00
41593;BMP180;28026;48.562;14.440;2022-12-13T15:47:54;92826.00;;;2.90
41593;BMP180;28026;48.562;14.440;2022-12-13T15:50:38;92827.00;;;2.90
41593;BMP180;28026;48.562;14.440;2022-12-13T15:53:27;92830.00;;;2.80
41593;BMP180;28026;48.562;14.440;2022-12-13T15:55:58;92830.00;;;2.70
41593;BMP180;28026;48.562;14.440;2022-12-13T15:58:36;92826.00;;;2.60
41593;BMP180;28026;48.562;14.440;2022-12-13T16:01:28;92831.00;;;2.50
41593;BMP180;28026;48.562;14.440;2022-12-13T16:04:06;92847.00;;;2.40
41593;BMP180;28026;48.562;14.440;2022-12-13T16:06:37;92839.00;;;2.30
41593;BMP180;28026;48.562;14.440;2022-12-13T16:09:19;92836.00;;;2.20
41593;BMP180;28026;48.562;14.440;2022-12-13T16:12:04;92819.00;;;2.20
41593;BMP180;28026;48.562;14.440;2022-12-13T16:14:42;92829.00;;;2.10
41593;BMP180;28026;48.562;14.440;2022-12-13T16:17:25;92827.00;;;2.00
41593;BMP180;28026;48.562;14.440;2022-12-13T16:20:01;92830.00;;;1.90
41593;BMP180;28026;48.562;14.440;2022-12-13T16:22:42;92829.00;;;1.80
41593;BMP180;28026;48.562;14.440;2022-12-13T16:25:18;92820.00;;;1.80
41593;BMP180;28026;48.562;14.440;2022-12-13T16:27:49;92827.00;;;1.70
41593;BMP180;28026;48.562;14.440;2022-12-13T16:33:24;92822.00;;;1.60
41593;BMP180;28026;48.562;14.440;2022-12-13T16:35:55;92831.00;;;1.60
41593;BMP180;28026;48.562;14.440;2022-12-13T16:38:26;92840.00;;;1.50
41593;BMP180;28026;48.562;14.440;2022-12-13T16:40:59;92827.00;;;1.50
41593;BMP180;28026;48.562;14.440;2022-12-13T16:43:36;92823.00;;;1.50
41593;BMP180;28026;48.562;14.440;2022-12-13T16:46:11;92829.00;;;1.30
41593;BMP180;28026;48.562;14.440;2022-12-13T16:48:43;92830.00;;;1.30
41593;BMP180;28026;48.562;14.440;2022-12-13T16:51:14;92823.00;;;1.20
41593;BMP180;28026;48.562;14.440;2022-12-13T16:53:45;92825.00;;;1.20
41593;BMP180;28026;48.562;14.440;2022-12-13T16:56:16;92831.00;;;1.20
41593;BMP180;28026;48.562;14.440;2022-12-13T16:58:50;92837.00;;;1.20
41593;BMP180;28026;48.562;14.440;2022-12-13T17:01:21;92833.00;;;1.10
41593;BMP180;28026;48.562;14.440;2022-12-13T17:03:52;92817.00;;;1.10
41593;BMP180;28026;48.562;14.440;2022-12-13T17:06:23;92826.00;;;1.10
41593;BMP180;28026;48.562;14.440;2022-12-13T17:08:54;92820.00;;;1.10
41593;BMP180;28026;48.562;14.440;2022-12-13T17:11:26;92820.00;;;1.00
41593;BMP180;28026;48.562;14.440;2022-12-13T17:13:58;92825.00;;;1.00
41593;BMP180;28026;48.562;14.440;2022-12-13T17:16:29;92816.00;;;1.00